createdAt,value
2022-08-19T00:01:31.143Z,99041.03
2022-08-19T00:04:03.497Z,99046.75
2022-08-19T00:06:31.040Z,99053.97
2022-08-19T00:08:58.535Z,99044.84
2022-08-19T00:11:26.366Z,99060.69
2022-08-19T00:13:53.963Z,99048.31
2022-08-19T00:16:26.102Z,99049.81
2022-08-19T00:18:56.689Z,99047.06
2022-08-19T00:21:24.839Z,99043.75
2022-08-19T00:23:51.415Z,99048.84
2022-08-19T00:26:17.865Z,99059.13
2022-08-19T00:28:44.292Z,99064.25
2022-08-19T00:31:10.883Z,99066.28
2022-08-19T00:33:37.819Z,99067.34
2022-08-19T00:36:07.281Z,99075.81
2022-08-19T00:38:37.515Z,99078.88
2022-08-19T00:41:05.925Z,99079.03
2022-08-19T00:43:32.735Z,99081.19
2022-08-19T00:45:59.245Z,99083.09
2022-08-19T00:48:25.978Z,99085.00
2022-08-19T00:50:54.115Z,99075.03
2022-08-19T00:53:23.391Z,99081.34
2022-08-19T00:55:52.688Z,99063.09
2022-08-19T00:58:21.557Z,99065.84
2022-08-19T01:00:49.053Z,99056.47
2022-08-19T01:03:19.290Z,99061.44
2022-08-19T01:05:47.345Z,99056.63
2022-08-19T01:08:16.249Z,99055.56
2022-08-19T01:10:46.594Z,99049.41
2022-08-19T01:13:17.598Z,99052.00
2022-08-19T01:15:51.534Z,99051.16
2022-08-19T01:18:19.236Z,99061.63
2022-08-19T01:20:46.563Z,99072.00
2022-08-19T01:23:14.840Z,99069.34
2022-08-19T01:25:51.721Z,99067.50
2022-08-19T01:28:33.711Z,99065.75
2022-08-19T01:31:01.114Z,99078.53
2022-08-19T01:33:34.847Z,99083.78
2022-08-19T01:36:07.526Z,99074.47
2022-08-19T01:38:37.809Z,99071.16
2022-08-19T01:41:12.531Z,99077.97
2022-08-19T01:43:39.421Z,99080.69
2022-08-19T01:46:26.065Z,99076.16
2022-08-19T01:48:52.785Z,99071.41
2022-08-19T01:51:19.434Z,99064.94
2022-08-19T01:53:49.148Z,99068.56
2022-08-19T01:56:15.872Z,99065.34
2022-08-19T01:58:47.404Z,99067.84
2022-08-19T02:01:14.759Z,99078.88
2022-08-19T02:03:42.424Z,99085.69
2022-08-19T02:06:09.091Z,99077.56
2022-08-19T02:08:37.402Z,99084.75
2022-08-19T02:11:05.009Z,99077.38
2022-08-19T02:13:32.480Z,99071.16
2022-08-19T02:15:58.987Z,99049.00
2022-08-19T02:18:27.837Z,99036.94
2022-08-19T02:20:56.184Z,99029.56
2022-08-19T02:23:22.657Z,99038.16
2022-08-19T02:25:49.759Z,99045.41
2022-08-19T02:28:18.770Z,99062.94
2022-08-19T02:30:46.618Z,99070.75
2022-08-19T02:33:13.094Z,99074.28
2022-08-19T02:35:43.682Z,99080.53
2022-08-19T02:38:28.391Z,99081.38
2022-08-19T02:41:00.599Z,99071.31
2022-08-19T02:43:28.537Z,99071.66
2022-08-19T02:45:55.214Z,99067.09
2022-08-19T02:48:23.530Z,99068.63
2022-08-19T02:50:56.055Z,99067.56
2022-08-19T02:53:24.333Z,99067.56
2022-08-19T02:55:51.796Z,99062.09
2022-08-19T02:58:19.290Z,99074.38
2022-08-19T03:00:50.245Z,99078.63
2022-08-19T03:03:17.269Z,99085.53
2022-08-19T03:05:48.205Z,99089.94
2022-08-19T03:08:22.838Z,99093.81
2022-08-19T03:10:49.320Z,99087.34
2022-08-19T03:13:17.155Z,99078.03
2022-08-19T03:15:45.653Z,99081.63
2022-08-19T03:18:12.561Z,99076.13
2022-08-19T03:20:44.889Z,99065.44
2022-08-19T03:23:13.417Z,99072.22
2022-08-19T03:25:44.005Z,99068.81
2022-08-19T03:28:12.951Z,99069.09
2022-08-19T03:30:43.614Z,99072.72
2022-08-19T03:33:11.346Z,99086.50
2022-08-19T03:35:46.023Z,99087.50
2022-08-19T03:38:12.630Z,99086.66
2022-08-19T03:40:39.353Z,99084.50
2022-08-19T03:43:06.984Z,99081.19
2022-08-19T03:45:33.470Z,99090.31
2022-08-19T03:48:00.016Z,99090.56
2022-08-19T03:50:26.608Z,99094.00
2022-08-19T03:52:53.721Z,99092.31
2022-08-19T03:55:20.369Z,99098.69
2022-08-19T03:57:49.500Z,99098.22
2022-08-19T04:00:16.476Z,99102.25
2022-08-19T04:02:58.060Z,99107.44
2022-08-19T04:05:29.524Z,99100.59
2022-08-19T04:07:59.733Z,99097.63
2022-08-19T04:10:26.329Z,99099.78
2022-08-19T04:12:52.889Z,99105.59
2022-08-19T04:15:19.947Z,99091.50
2022-08-19T04:17:46.391Z,99102.59
2022-08-19T04:20:12.947Z,99092.72
2022-08-19T04:22:39.347Z,99098.88
2022-08-19T04:25:06.213Z,99083.88
2022-08-19T04:27:34.339Z,99080.88
2022-08-19T04:30:00.782Z,99092.38
2022-08-19T04:32:27.235Z,99088.56
2022-08-19T04:35:01.278Z,99095.22
2022-08-19T04:37:35.174Z,99096.47
2022-08-19T04:40:22.802Z,99099.72
2022-08-19T04:42:49.214Z,99091.50
2022-08-19T04:45:17.459Z,99092.94
2022-08-19T04:47:47.402Z,99100.59
2022-08-19T04:50:25.635Z,99111.31
2022-08-19T04:52:52.687Z,99114.63
2022-08-19T04:55:19.678Z,99117.81
2022-08-19T04:57:46.207Z,99114.06
2022-08-19T05:00:13.257Z,99115.38
2022-08-19T05:02:39.801Z,99104.41
2022-08-19T05:05:07.254Z,99097.88
2022-08-19T05:07:33.709Z,99102.22
2022-08-19T05:10:00.129Z,99097.81
2022-08-19T05:12:29.109Z,99101.63
2022-08-19T05:14:57.684Z,99111.25
2022-08-19T05:17:27.623Z,99113.75
2022-08-19T05:20:14.297Z,99115.91
2022-08-19T05:22:41.703Z,99130.97
2022-08-19T05:25:13.878Z,99141.69
2022-08-19T05:27:42.009Z,99153.88
2022-08-19T05:30:08.994Z,99147.81
2022-08-19T05:32:35.690Z,99145.25
2022-08-19T05:35:02.201Z,99150.56
2022-08-19T05:37:28.850Z,99157.88
2022-08-19T05:39:56.046Z,99152.91
2022-08-19T05:42:24.004Z,99162.25
2022-08-19T05:44:51.541Z,99180.34
2022-08-19T05:47:20.698Z,99178.34
2022-08-19T05:49:47.789Z,99188.94
2022-08-19T05:52:18.589Z,99184.91
2022-08-19T05:54:50.965Z,99199.34
2022-08-19T05:57:18.976Z,99201.16
2022-08-19T05:59:47.181Z,99209.38
2022-08-19T06:02:15.162Z,99209.88
2022-08-19T06:04:43.713Z,99208.97
2022-08-19T06:07:12.405Z,99217.75
2022-08-19T06:09:40.223Z,99217.94
2022-08-19T06:12:07.463Z,99219.75
2022-08-19T06:14:40.322Z,99229.63
2022-08-19T06:17:08.599Z,99246.25
2022-08-19T06:19:35.055Z,99254.72
2022-08-19T06:22:07.581Z,99263.41
2022-08-19T06:24:34.115Z,99275.25
2022-08-19T06:27:01.763Z,99274.03
2022-08-19T06:29:29.025Z,99276.53
2022-08-19T06:31:57.336Z,99280.19
2022-08-19T06:34:24.718Z,99284.75
2022-08-19T06:36:52.829Z,99288.28
2022-08-19T06:39:22.746Z,99282.13
2022-08-19T06:41:53.311Z,99280.72
2022-08-19T06:44:23.810Z,99277.38
2022-08-19T06:46:54.955Z,99283.28
2022-08-19T06:49:22.561Z,99276.53
2022-08-19T06:51:50.204Z,99288.19
2022-08-19T06:54:20.101Z,99285.13
2022-08-19T06:56:47.347Z,99291.31
2022-08-19T06:59:16.730Z,99295.81
2022-08-19T07:01:47.898Z,99299.13
2022-08-19T07:04:16.709Z,99301.06
2022-08-19T07:06:44.857Z,99302.84
2022-08-19T07:09:14.695Z,99305.81
2022-08-19T07:11:50.162Z,99288.44
2022-08-19T07:14:19.711Z,99277.13
2022-08-19T07:16:48.572Z,99273.56
2022-08-19T07:19:16.217Z,99261.09
2022-08-19T07:21:47.135Z,99257.41
2022-08-19T07:24:13.664Z,99256.69
2022-08-19T07:26:42.415Z,99253.34
2022-08-19T07:29:09.791Z,99258.72
2022-08-19T07:31:37.623Z,99272.97
2022-08-19T07:34:08.539Z,99278.31
2022-08-19T07:36:37.696Z,99275.13
2022-08-19T07:39:08.455Z,99271.44
2022-08-19T07:41:36.306Z,99284.97
2022-08-19T07:44:04.658Z,99283.22
2022-08-19T07:46:36.152Z,99286.19
2022-08-19T07:49:03.878Z,99285.97
2022-08-19T07:51:36.491Z,99285.22
2022-08-19T07:54:04.323Z,99282.03
2022-08-19T07:56:31.101Z,99269.06
2022-08-19T07:58:57.690Z,99281.56
2022-08-19T08:01:29.087Z,99278.59
2022-08-19T08:04:16.227Z,99271.31
2022-08-19T08:07:01.948Z,99264.44
2022-08-19T08:09:39.197Z,99272.75
2022-08-19T08:12:35.294Z,99277.88
2022-08-19T08:15:08.424Z,99274.31
2022-08-19T08:17:51.445Z,99273.34
2022-08-19T08:20:19.507Z,99277.38
2022-08-19T08:23:05.442Z,99272.13
2022-08-19T08:25:32.585Z,99277.97
2022-08-19T08:28:01.195Z,99285.00
2022-08-19T08:30:31.318Z,99277.75
2022-08-19T08:33:00.029Z,99281.31
2022-08-19T08:35:26.846Z,99278.69
2022-08-19T08:37:55.120Z,99284.75
2022-08-19T08:40:30.517Z,99282.84
2022-08-19T08:43:22.623Z,99290.59
2022-08-19T08:45:53.906Z,99298.19
2022-08-19T08:48:35.903Z,99313.09
2022-08-19T08:51:05.256Z,99308.06
2022-08-19T08:53:34.407Z,99317.75
2022-08-19T08:56:04.758Z,99325.09
2022-08-19T08:58:59.471Z,99317.72
2022-08-19T09:01:30.484Z,99313.63
2022-08-19T09:03:57.666Z,99319.09
2022-08-19T09:06:41.035Z,99320.59
2022-08-19T09:09:32.046Z,99335.31
2022-08-19T09:12:11.881Z,99340.44
2022-08-19T09:14:55.189Z,99347.28
2022-08-19T09:17:31.806Z,99349.31
2022-08-19T09:20:26.532Z,99360.47
2022-08-19T09:22:53.402Z,99361.53
2022-08-19T09:25:24.765Z,99368.44
2022-08-19T09:27:55.662Z,99365.28
2022-08-19T09:30:32.013Z,99359.31
2022-08-19T09:32:59.440Z,99353.25
2022-08-19T09:35:28.386Z,99357.97
2022-08-19T09:37:57.542Z,99351.69
2022-08-19T09:40:27.973Z,99339.13
2022-08-19T09:42:58.680Z,99351.56
2022-08-19T09:45:25.175Z,99363.31
2022-08-19T09:47:54.250Z,99360.44
2022-08-19T09:50:22.893Z,99357.78
2022-08-19T09:52:55.517Z,99348.81
2022-08-19T09:55:24.856Z,99352.44
2022-08-19T09:58:00.052Z,99364.19
2022-08-19T10:00:27.408Z,99368.53
2022-08-19T10:02:53.939Z,99364.88
2022-08-19T10:05:59.043Z,99380.09
2022-08-19T10:08:37.404Z,99380.94
2022-08-19T10:11:28.063Z,99378.44
2022-08-19T10:13:51.480Z,99375.31
2022-08-19T10:16:20.940Z,99369.19
2022-08-19T10:18:49.605Z,99357.53
2022-08-19T10:21:19.513Z,99363.09
2022-08-19T10:23:47.835Z,99373.75
2022-08-19T10:26:19.073Z,99375.47
2022-08-19T10:28:47.100Z,99385.28
2022-08-19T10:31:18.277Z,99391.16
2022-08-19T10:33:53.660Z,99405.78
2022-08-19T10:36:23.491Z,99409.06
2022-08-19T10:38:56.533Z,99410.44
2022-08-19T10:41:25.466Z,99401.63
2022-08-19T10:43:56.166Z,99395.03
2022-08-19T10:46:24.694Z,99401.94
2022-08-19T10:48:52.023Z,99401.78
2022-08-19T10:51:37.116Z,99407.28
2022-08-19T10:54:14.503Z,99405.44
2022-08-19T10:56:52.796Z,99409.88
2022-08-19T10:59:31.425Z,99410.28
2022-08-19T11:02:02.113Z,99425.25
2022-08-19T11:04:28.888Z,99421.94
2022-08-19T11:06:56.530Z,99418.03
2022-08-19T11:09:33.963Z,99430.69
2022-08-19T11:12:03.017Z,99428.41
2022-08-19T11:14:34.060Z,99434.75
2022-08-19T11:17:01.326Z,99440.19
2022-08-19T11:19:28.538Z,99433.13
2022-08-19T11:21:57.799Z,99438.47
2022-08-19T11:24:26.978Z,99441.16
2022-08-19T11:26:59.982Z,99446.09
2022-08-19T11:29:28.598Z,99448.81
2022-08-19T11:31:55.886Z,99447.28
2022-08-19T11:34:24.174Z,99448.81
2022-08-19T11:36:52.171Z,99439.44
2022-08-19T11:39:20.933Z,99441.25
2022-08-19T11:41:47.578Z,99447.22
2022-08-19T11:44:15.166Z,99452.44
2022-08-19T11:46:46.431Z,99458.84
2022-08-19T11:49:14.911Z,99440.56
2022-08-19T11:51:43.765Z,99431.44
2022-08-19T11:54:10.509Z,99435.38
2022-08-19T11:56:38.362Z,99440.16
2022-08-19T11:59:05.049Z,99439.38
2022-08-19T12:01:32.339Z,99446.00
2022-08-19T12:03:59.066Z,99460.06
2022-08-19T12:06:31.193Z,99457.25
2022-08-19T12:08:58.574Z,99464.03
2022-08-19T12:11:25.253Z,99465.59
2022-08-19T12:13:52.156Z,99475.81
2022-08-19T12:16:25.493Z,99459.41
2022-08-19T12:18:52.169Z,99465.56
2022-08-19T12:21:26.009Z,99472.66
2022-08-19T12:23:55.794Z,99476.56
2022-08-19T12:26:23.608Z,99477.25
2022-08-19T12:28:50.059Z,99482.81
2022-08-19T12:31:17.338Z,99484.44
2022-08-19T12:33:43.893Z,99469.69
2022-08-19T12:36:12.296Z,99479.03
2022-08-19T12:38:39.649Z,99476.22
2022-08-19T12:41:07.928Z,99481.88
2022-08-19T12:43:35.965Z,99470.47
2022-08-19T12:46:05.166Z,99468.56
2022-08-19T12:48:36.746Z,99488.31
2022-08-19T12:51:08.553Z,99491.72
2022-08-19T12:53:35.375Z,99492.78
2022-08-19T12:56:07.449Z,99499.41
2022-08-19T12:58:38.754Z,99496.22
2022-08-19T13:01:11.476Z,99484.91
2022-08-19T13:03:40.561Z,99472.19
2022-08-19T13:06:08.057Z,99474.56
2022-08-19T13:08:34.634Z,99472.97
2022-08-19T13:11:18.383Z,99475.56
2022-08-19T13:13:46.506Z,99483.13
2022-08-19T13:16:15.242Z,99481.03
2022-08-19T13:18:42.322Z,99475.91
2022-08-19T13:21:10.370Z,99468.16
2022-08-19T13:23:36.885Z,99466.31
2022-08-19T13:26:06.188Z,99472.94
2022-08-19T13:28:53.042Z,99469.75
2022-08-19T13:31:39.314Z,99475.31
2022-08-19T13:34:06.633Z,99469.53
2022-08-19T13:36:36.860Z,99466.09
2022-08-19T13:39:04.553Z,99471.19
2022-08-19T13:41:31.901Z,99473.84
2022-08-19T13:43:58.451Z,99472.44
2022-08-19T13:46:24.914Z,99475.38
2022-08-19T13:48:51.558Z,99482.19
2022-08-19T13:51:18.574Z,99477.31
2022-08-19T13:53:48.077Z,99475.31
2022-08-19T13:56:17.271Z,99474.09
2022-08-19T13:58:44.373Z,99478.06
2022-08-19T14:01:11.867Z,99469.19
2022-08-19T14:03:39.341Z,99460.13
2022-08-19T14:06:05.970Z,99466.94
2022-08-19T14:08:33.310Z,99464.78
2022-08-19T14:11:00.392Z,99473.31
2022-08-19T14:13:34.835Z,99476.38
2022-08-19T14:16:01.376Z,99478.13
2022-08-19T14:18:28.645Z,99475.09
2022-08-19T14:20:57.753Z,99473.44
2022-08-19T14:23:25.370Z,99481.69
2022-08-19T14:25:51.867Z,99466.56
2022-08-19T14:28:18.411Z,99467.97
2022-08-19T14:30:45.517Z,99471.47
2022-08-19T14:33:12.556Z,99473.03
2022-08-19T14:35:39.325Z,99480.31
2022-08-19T14:38:07.233Z,99476.47
2022-08-19T14:40:34.234Z,99486.25
2022-08-19T14:43:04.807Z,99492.00
2022-08-19T14:45:37.033Z,99493.00
2022-08-19T14:48:08.043Z,99483.00
2022-08-19T14:50:39.085Z,99484.41
2022-08-19T14:53:12.787Z,99485.75
2022-08-19T14:55:42.826Z,99493.69
2022-08-19T14:58:09.856Z,99495.16
2022-08-19T15:00:55.210Z,99491.81
2022-08-19T15:03:21.647Z,99488.72
2022-08-19T15:05:48.067Z,99486.28
2022-08-19T15:08:14.643Z,99474.38
2022-08-19T15:10:41.140Z,99478.94
2022-08-19T15:13:08.186Z,99465.19
2022-08-19T15:15:35.926Z,99474.59
2022-08-19T15:18:03.574Z,99476.94
2022-08-19T15:20:30.437Z,99475.88
2022-08-19T15:22:56.919Z,99475.06
2022-08-19T15:25:23.433Z,99473.00
2022-08-19T15:27:51.153Z,99485.47
2022-08-19T15:30:22.292Z,99490.31
2022-08-19T15:32:49.345Z,99487.97
2022-08-19T15:35:16.390Z,99489.63
2022-08-19T15:37:43.134Z,99495.72
2022-08-19T15:40:10.027Z,99488.81
2022-08-19T15:42:37.728Z,99487.47
2022-08-19T15:45:06.370Z,99477.00
2022-08-19T15:47:34.414Z,99468.16
2022-08-19T15:50:05.829Z,99464.00
2022-08-19T15:52:32.533Z,99459.34
2022-08-19T15:55:00.474Z,99459.28
2022-08-19T15:57:27.343Z,99457.19
2022-08-19T16:00:12.278Z,99457.72
2022-08-19T16:02:57.526Z,99455.38
2022-08-19T16:05:45.390Z,99450.13
2022-08-19T16:08:11.908Z,99460.69
2022-08-19T16:10:39.599Z,99455.25
2022-08-19T16:13:06.112Z,99462.78
2022-08-19T16:15:33.758Z,99459.59
2022-08-19T16:18:02.845Z,99469.31
2022-08-19T16:20:29.654Z,99464.81
2022-08-19T16:22:58.586Z,99476.19
2022-08-19T16:25:28.492Z,99466.84
2022-08-19T16:28:07.550Z,99462.81
2022-08-19T16:30:39.568Z,99469.91
2022-08-19T16:33:06.613Z,99467.22
2022-08-19T16:35:33.050Z,99463.22
2022-08-19T16:37:59.467Z,99461.91
2022-08-19T16:40:26.021Z,99464.56
2022-08-19T16:42:53.596Z,99467.53
2022-08-19T16:45:21.893Z,99464.09
2022-08-19T16:47:48.346Z,99453.59
2022-08-19T16:50:14.800Z,99442.50
2022-08-19T16:52:41.257Z,99434.19
2022-08-19T16:55:08.439Z,99437.59
2022-08-19T16:57:34.987Z,99436.88
2022-08-19T17:00:08.690Z,99434.03
2022-08-19T17:02:35.300Z,99439.03
2022-08-19T17:05:02.029Z,99440.09
2022-08-19T17:07:33.121Z,99447.78
2022-08-19T17:10:00.348Z,99441.78
2022-08-19T17:12:30.475Z,99445.16
2022-08-19T17:14:58.962Z,99440.00
2022-08-19T17:17:28.964Z,99433.34
2022-08-19T17:19:55.692Z,99443.13
2022-08-19T17:22:22.181Z,99451.03
2022-08-19T17:24:48.622Z,99463.72
2022-08-19T17:27:15.080Z,99471.06
2022-08-19T17:29:46.347Z,99468.69
2022-08-19T17:32:13.504Z,99465.69
2022-08-19T17:34:39.947Z,99461.78
2022-08-19T17:37:06.418Z,99462.25
2022-08-19T17:39:32.962Z,99454.22
2022-08-19T17:42:06.115Z,99458.50
2022-08-19T17:44:36.545Z,99456.94
2022-08-19T17:47:04.260Z,99454.88
2022-08-19T17:49:30.928Z,99449.22
2022-08-19T17:51:59.795Z,99460.41
2022-08-19T17:54:28.657Z,99467.50
2022-08-19T17:57:01.271Z,99477.81
2022-08-19T17:59:30.030Z,99486.50
2022-08-19T18:01:57.390Z,99499.16
2022-08-19T18:04:25.567Z,99503.34
2022-08-19T18:06:54.333Z,99496.66
2022-08-19T18:09:27.315Z,99508.47
2022-08-19T18:11:56.749Z,99516.25
2022-08-19T18:14:33.333Z,99523.03
2022-08-19T18:17:09.208Z,99528.53
2022-08-19T18:19:41.159Z,99543.78
2022-08-19T18:22:10.216Z,99559.25
2022-08-19T18:24:41.613Z,99566.06
2022-08-19T18:27:08.147Z,99573.69
2022-08-19T18:29:38.161Z,99582.03
2022-08-19T18:32:05.875Z,99582.97
2022-08-19T18:34:32.552Z,99580.47
2022-08-19T18:36:59.014Z,99586.78
2022-08-19T18:39:44.205Z,99582.38
2022-08-19T18:42:34.328Z,99575.69
2022-08-19T18:45:19.415Z,99563.56
2022-08-19T18:48:04.731Z,99551.16
2022-08-19T18:50:31.230Z,99560.22
2022-08-19T18:52:57.691Z,99563.66
2022-08-19T18:55:26.740Z,99570.34
2022-08-19T18:57:53.609Z,99564.03
2022-08-19T19:00:20.818Z,99563.53
2022-08-19T19:02:47.734Z,99558.66
2022-08-19T19:05:15.158Z,99554.16
2022-08-19T19:07:42.358Z,99561.50
2022-08-19T19:10:09.100Z,99551.53
2022-08-19T19:12:36.794Z,99541.03
2022-08-19T19:15:06.050Z,99546.50
2022-08-19T19:17:32.828Z,99546.50
2022-08-19T19:19:59.448Z,99552.44
2022-08-19T19:22:25.921Z,99551.47
2022-08-19T19:24:54.132Z,99554.34
2022-08-19T19:27:21.534Z,99549.25
2022-08-19T19:29:51.941Z,99541.47
2022-08-19T19:32:24.016Z,99537.78
2022-08-19T19:34:50.528Z,99549.47
2022-08-19T19:37:17.322Z,99544.69
2022-08-19T19:39:45.950Z,99538.63
2022-08-19T19:42:21.003Z,99538.53
2022-08-19T19:44:50.395Z,99535.53
2022-08-19T19:47:18.837Z,99554.69
2022-08-19T19:50:13.198Z,99565.75
2022-08-19T19:52:39.253Z,99564.56
2022-08-19T19:55:06.044Z,99563.63
2022-08-19T19:57:32.767Z,99547.19
2022-08-19T19:59:59.456Z,99536.94
2022-08-19T20:02:25.922Z,99526.25
2022-08-19T20:04:52.882Z,99532.41
2022-08-19T20:07:39.446Z,99539.09
2022-08-19T20:10:06.166Z,99548.97
2022-08-19T20:12:32.567Z,99554.19
2022-08-19T20:14:58.998Z,99555.41
2022-08-19T20:17:25.417Z,99551.34
2022-08-19T20:19:51.846Z,99557.66
2022-08-19T20:22:19.167Z,99562.19
2022-08-19T20:24:45.750Z,99574.69
2022-08-19T20:27:12.288Z,99588.03
2022-08-19T20:29:41.673Z,99595.03
2022-08-19T20:32:12.479Z,99588.63
2022-08-19T20:34:40.321Z,99576.00
2022-08-19T20:37:09.347Z,99565.22
2022-08-19T20:39:36.469Z,99578.31
2022-08-19T20:42:03.022Z,99574.88
2022-08-19T20:44:29.493Z,99575.13
2022-08-19T20:46:59.422Z,99567.19
2022-08-19T20:49:28.560Z,99576.31
2022-08-19T20:51:56.771Z,99573.97
2022-08-19T20:54:24.130Z,99586.56
2022-08-19T20:56:51.078Z,99584.06
2022-08-19T20:59:17.727Z,99584.69
2022-08-19T21:01:44.145Z,99583.16
2022-08-19T21:04:10.559Z,99570.28
2022-08-19T21:06:38.524Z,99571.44
2022-08-19T21:09:05.327Z,99563.59
2022-08-19T21:11:32.342Z,99557.63
2022-08-19T21:13:59.342Z,99554.28
2022-08-19T21:16:25.853Z,99558.22
2022-08-19T21:18:52.537Z,99555.09
2022-08-19T21:21:19.062Z,99550.69
2022-08-19T21:23:45.494Z,99556.25
2022-08-19T21:26:11.949Z,99558.91
2022-08-19T21:28:38.415Z,99565.31
2022-08-19T21:31:06.639Z,99571.25
2022-08-19T21:33:33.614Z,99565.81
2022-08-19T21:36:00.143Z,99576.88
2022-08-19T21:38:27.500Z,99572.31
2022-08-19T21:40:54.918Z,99577.31
2022-08-19T21:43:21.806Z,99573.38
2022-08-19T21:45:50.483Z,99577.44
2022-08-19T21:48:18.015Z,99567.91
2022-08-19T21:50:46.071Z,99569.88
2022-08-19T21:53:18.637Z,99574.44
2022-08-19T21:55:46.104Z,99571.72
2022-08-19T21:58:19.767Z,99566.84
2022-08-19T22:00:55.237Z,99555.91
2022-08-19T22:03:22.105Z,99550.34
2022-08-19T22:05:48.615Z,99542.72
2022-08-19T22:08:15.288Z,99546.75
2022-08-19T22:10:41.759Z,99539.00
2022-08-19T22:13:09.468Z,99543.97
2022-08-19T22:15:36.034Z,99543.28
2022-08-19T22:18:02.724Z,99560.63
2022-08-19T22:20:31.421Z,99558.78
2022-08-19T22:23:03.418Z,99573.47
2022-08-19T22:25:33.001Z,99586.53
2022-08-19T22:28:01.848Z,99574.16
2022-08-19T22:30:32.373Z,99572.47
2022-08-19T22:33:04.141Z,99568.22
2022-08-19T22:35:34.426Z,99566.72
2022-08-19T22:38:01.453Z,99555.91
2022-08-19T22:40:30.303Z,99561.81
2022-08-19T22:43:02.841Z,99564.00
2022-08-19T22:45:30.248Z,99572.69
2022-08-19T22:47:57.210Z,99574.44
2022-08-19T22:50:24.185Z,99584.56
2022-08-19T22:52:58.642Z,99573.03
2022-08-19T22:55:29.795Z,99583.16
2022-08-19T22:57:57.231Z,99588.03
2022-08-19T23:00:27.391Z,99598.75
2022-08-19T23:02:55.846Z,99592.91
2022-08-19T23:05:24.896Z,99583.63
2022-08-19T23:07:52.558Z,99576.03
2022-08-19T23:10:26.933Z,99576.25
2022-08-19T23:12:56.273Z,99570.31
2022-08-19T23:15:26.005Z,99571.72
2022-08-19T23:17:54.949Z,99571.84
2022-08-19T23:20:27.361Z,99566.09
2022-08-19T23:22:55.652Z,99572.41
2022-08-19T23:25:26.601Z,99563.59
2022-08-19T23:28:12.012Z,99559.78
2022-08-19T23:30:43.440Z,99555.38
2022-08-19T23:33:18.717Z,99555.16
2022-08-19T23:35:45.351Z,99558.81
2022-08-19T23:38:12.394Z,99557.75
2022-08-19T23:40:39.229Z,99550.81
2022-08-19T23:43:08.136Z,99548.06
2022-08-19T23:45:40.861Z,99555.50
2022-08-19T23:48:18.370Z,99553.00
2022-08-19T23:50:45.471Z,99564.41
2022-08-19T23:53:13.419Z,99555.97
2022-08-19T23:55:42.643Z,99556.66
2022-08-19T23:58:09.514Z,99547.00
